Aeroporto :
LOGIN :

Iscrizione | Disclaimer

   EN    FR    IT 

 










Sommario :    VFR   VFR Marginale   IFR   IFR Intensivo   IFR Molto Intensivo
Visibilità : 
Base nubi : 
>= 8 km
>= 3000ft
5 / 8 km
1000 / 3000 ft
1500m / 5 km
500 / 1000 ft
800 / 1500m
200 / 500 ft
< 800m
< 200 ft
Simboli :   Temporali  Nebbia  Neve Forte  Precipitazioni Forti  Vento > 20 kt
SIGMETs :   Varie  Temporali  Ghiacco  Turbolenza  Onda orograficha  Ceneri Vulcaniche






- Altitudine del aeroporto : 38 ft
- Codice IATA : BOH


EGHH - Bournemouth

ULTIMO METAR :
  • 260920Z 21008KT 9999 BKN012 10/08 Q1011

METARs OBSOLETI :
  • 260850Z 20010KT 9999 BKN049 09/07 Q1011
  • 260820Z 21007KT 9999 FEW025 SCT045 08/07 Q1011
  • 260750Z 19009KT 9999 FEW013 SCT036 08/06 Q1011
  • 260720Z 20008KT 9999 -DZ FEW013 SCT030 09/08 Q1011
  • 260650Z 20008KT 9999 -DZ FEW013 SCT022 09/08 Q1011

TAF AMD TAF EGHH
Valido dal 26 a 09 ore il 26 a 18 ore UTC


260927Z 2609/2618 19012KT 9999 SCT015
TEMPO 2609/2610 BKN012
TEMPO 2610/2617 6000 RA BKN010
PROB40
TEMPO 2611/2616 20015G25KT 3000 +RA BKN007
BECMG 2615/2618 27007KT
ATIS : +44 1202 364 151
Met : +44 1202 364 158 (TAF)



MetMap, La meteo Aeronautica in un colpo d'occhio ! - Copyright ORBIFLY Dicembre 2007 - Disclaimer

ORBIFLY MET'MAP TEAM :

Programmazione e sviluppo : Alexandra Zaïnal
Concezione : Baudouin d'Aumeries
Aiuto per la programmazione : Marc-Olivier Méhu
Supporto tecnico e logistico : Manuel Goepfert
Aiuto per la traduzione : Arnaldo La Scala

Contatto : metmap@orbifly.com




FONTI E CREDITI :

   NOAA